Time;durP1;ratioP1;P1;durP2;ratioP2;P2;SDS_P1;SDS_P2;PMS_P1;PMS_P2;Temp;Humidity;BMP_temperature;BMP_pressure;BME280_temperature;BME280_humidity;BME280_pressure;Samples;Min_cycle;Max_cycle;Signal;HPM_P1;HPM_P2
2022/06/28 00:01:22;;;;;;;3.22;0.82;;;;;;;16.65;100.00;96371.94;5009810;28;25020;-72
2022/06/28 00:03:49;;;;;;;0.90;0.60;;;;;;;16.54;100.00;96380.63;4999363;28;24436;-72
2022/06/28 00:06:16;;;;;;;1.85;0.85;;;;;;;16.39;100.00;96394.88;5010093;28;24432;-72
2022/06/28 00:08:42;;;;;;;1.13;0.50;;;;;;;16.30;100.00;96396.38;5006837;28;25222;-72
2022/06/28 00:11:09;;;;;;;1.20;0.50;;;;;;;16.15;100.00;96403.59;5009121;28;24826;-73
2022/06/28 00:13:35;;;;;;;1.00;0.63;;;;;;;16.19;100.00;96405.03;4998377;28;25098;-73
2022/06/28 00:16:05;;;;;;;2.75;0.68;;;;;;;16.26;100.00;96407.19;5008418;28;24997;-72
2022/06/28 00:18:31;;;;;;;1.02;0.52;;;;;;;16.23;100.00;96403.00;5006853;28;24471;-72
2022/06/28 00:20:59;;;;;;;2.10;0.90;;;;;;;16.28;100.00;96398.28;5009566;28;24428;-72
2022/06/28 00:23:25;;;;;;;1.70;0.98;;;;;;;16.15;100.00;96400.97;5007044;28;24429;-72
2022/06/28 00:25:52;;;;;;;2.93;0.80;;;;;;;16.13;100.00;96388.97;5002791;28;24444;-72
2022/06/28 00:28:18;;;;;;;1.00;0.70;;;;;;;16.13;100.00;96394.19;5006873;28;24424;-73
2022/06/28 00:30:45;;;;;;;1.52;0.90;;;;;;;16.08;100.00;96384.09;5009438;28;24432;-73
2022/06/28 00:33:12;;;;;;;3.20;1.02;;;;;;;15.93;100.00;96380.00;5010806;28;24440;-74
2022/06/28 00:35:39;;;;;;;8.27;0.80;;;;;;;15.87;100.00;96377.84;5009756;28;24452;-74
2022/06/28 00:38:07;;;;;;;0.83;0.60;;;;;;;15.68;100.00;96373.16;5005142;28;24432;-72
2022/06/28 00:40:39;;;;;;;0.85;0.52;;;;;;;15.57;100.00;96370.47;5009658;28;24429;-73
2022/06/28 00:43:06;;;;;;;7.25;0.65;;;;;;;15.56;100.00;96368.81;5006757;28;24478;-72
2022/06/28 00:45:32;;;;;;;1.10;0.60;;;;;;;15.57;100.00;96373.06;5009461;28;24432;-72
2022/06/28 00:47:59;;;;;;;2.55;0.50;;;;;;;15.61;100.00;96375.38;5006746;28;24440;-72
2022/06/28 00:50:26;;;;;;;2.20;0.60;;;;;;;15.64;100.00;96374.28;5009509;28;24448;-72
2022/06/28 00:53:00;;;;;;;1.77;0.70;;;;;;;15.63;100.00;96380.47;5002610;28;24444;-73
2022/06/28 00:55:27;;;;;;;1.40;0.70;;;;;;;15.75;100.00;96374.38;4996415;28;24555;-72
2022/06/28 00:57:54;;;;;;;1.35;0.50;;;;;;;15.84;100.00;96376.31;5006535;28;24440;-73
2022/06/28 01:00:21;;;;;;;1.58;0.77;;;;;;;15.94;100.00;96379.06;5002658;28;24464;-72
2022/06/28 01:02:48;;;;;;;1.40;0.70;;;;;;;15.97;100.00;96382.28;5006931;28;24989;-72
2022/06/28 01:05:14;;;;;;;1.33;0.70;;;;;;;15.99;100.00;96384.78;5009933;28;24428;-72
2022/06/28 01:07:41;;;;;;;1.38;0.75;;;;;;;16.03;100.00;96386.22;5007162;28;24483;-72
2022/06/28 01:10:10;;;;;;;1.87;0.90;;;;;;;15.96;100.00;96382.41;5009329;28;24492;-72
2022/06/28 01:12:38;;;;;;;1.05;0.60;;;;;;;15.97;100.00;96384.06;5004520;28;24476;-72
2022/06/28 01:15:05;;;;;;;2.00;0.80;;;;;;;15.79;100.00;96385.44;5002088;28;24444;-72
2022/06/28 01:17:33;;;;;;;2.00;0.70;;;;;;;15.73;100.00;96390.16;5009962;28;24969;-72
2022/06/28 01:19:59;;;;;;;1.33;0.70;;;;;;;15.65;100.00;96382.06;5009974;28;24447;-72
2022/06/28 01:22:30;;;;;;;2.20;0.60;;;;;;;15.62;100.00;96386.66;5009461;28;24429;-72
2022/06/28 01:24:58;;;;;;;1.38;0.85;;;;;;;15.55;100.00;96394.09;5020224;28;24432;-72
2022/06/28 01:27:25;;;;;;;1.27;0.60;;;;;;;15.66;100.00;96402.00;5018995;28;24495;-72
2022/06/28 01:29:52;;;;;;;1.83;0.60;;;;;;;15.68;100.00;96394.03;5021537;28;24448;-72
2022/06/28 01:32:19;;;;;;;2.05;0.80;;;;;;;15.71;100.00;96394.66;5013918;28;24484;-72
2022/06/28 01:34:45;;;;;;;0.90;0.60;;;;;;;15.60;100.00;96399.78;5020021;28;24502;-72
2022/06/28 01:37:13;;;;;;;2.47;0.70;;;;;;;15.55;100.00;96394.09;5002800;28;24441;-73
2022/06/28 01:39:39;;;;;;;0.70;0.43;;;;;;;15.54;100.00;96397.66;5010059;28;24448;-73
2022/06/28 01:42:07;;;;;;;1.38;0.60;;;;;;;15.58;100.00;96395.66;5007519;28;24519;-73
2022/06/28 01:44:35;;;;;;;2.67;0.90;;;;;;;15.59;100.00;96397.31;5016159;28;24432;-73
2022/06/28 01:47:03;;;;;;;2.20;0.80;;;;;;;15.62;100.00;96402.31;5010088;28;24436;-73
2022/06/28 01:49:29;;;;;;;3.53;0.85;;;;;;;15.48;100.00;96398.09;5015681;28;24494;-73
2022/06/28 01:51:56;;;;;;;3.75;0.90;;;;;;;15.46;100.00;96395.59;5011355;28;24432;-73
2022/06/28 01:54:22;;;;;;;1.42;0.70;;;;;;;15.48;100.00;96403.31;5011625;28;25029;-73
2022/06/28 01:56:49;;;;;;;1.25;0.80;;;;;;;15.51;100.00;96405.69;5008335;28;24994;-73
2022/06/28 01:59:16;;;;;;;1.73;0.70;;;;;;;15.59;100.00;96397.31;5015670;28;24993;-73
2022/06/28 02:01:43;;;;;;;2.33;1.00;;;;;;;15.55;100.00;96401.91;5011848;28;24495;-73
2022/06/28 02:04:20;;;;;;;1.80;0.80;;;;;;;15.45;100.00;96396.53;5014601;28;24436;-73
2022/06/28 02:06:46;;;;;;;1.85;1.00;;;;;;;15.11;100.00;96394.66;5011944;28;24432;-72
2022/06/28 02:09:13;;;;;;;11.73;1.58;;;;;;;14.74;100.00;96402.47;5015541;28;24444;-73
2022/06/28 02:11:40;;;;;;;26.80;1.48;;;;;;;14.56;100.00;96393.31;5012449;28;24810;-73
2022/06/28 02:14:06;;;;;;;1.50;0.90;;;;;;;14.46;100.00;96388.69;5002456;28;24449;-73
2022/06/28 02:16:34;;;;;;;3.13;0.83;;;;;;;14.42;100.00;96389.81;5012150;28;24448;-73
2022/06/28 02:19:01;;;;;;;4.13;1.10;;;;;;;14.43;100.00;96386.31;5014800;28;24444;-73
2022/06/28 02:21:27;;;;;;;1.63;0.77;;;;;;;14.54;100.00;96397.81;5012130;28;24460;-73
2022/06/28 02:23:54;;;;;;;1.95;0.70;;;;;;;14.67;100.00;96398.59;5015025;28;24487;-73
2022/06/28 02:26:21;;;;;;;3.73;0.90;;;;;;;14.74;100.00;96392.84;5007792;28;25178;-73
2022/06/28 02:28:47;;;;;;;2.10;0.70;;;;;;;14.79;100.00;96392.53;5014965;28;24429;-73
2022/06/28 02:31:15;;;;;;;1.95;0.70;;;;;;;14.82;100.00;96388.88;5012399;28;24448;-73
2022/06/28 02:33:44;;;;;;;1.85;0.60;;;;;;;14.87;100.00;96387.66;5014971;28;24439;-72
2022/06/28 02:41:39;;;;;;;1.00;0.60;;;;;;;14.69;100.00;96399.34;5012566;28;24535;-73
2022/06/28 02:44:06;;;;;;;1.77;0.63;;;;;;;14.56;100.00;96390.69;5015329;28;24428;-73
2022/06/28 02:46:32;;;;;;;1.80;0.82;;;;;;;14.26;100.00;96390.03;5012525;28;24496;-73
2022/06/28 02:49:00;;;;;;;0.82;0.68;;;;;;;14.08;100.00;96383.47;5015695;28;24486;-75
2022/06/28 02:51:27;;;;;;;1.80;0.80;;;;;;;14.12;100.00;96384.09;5013451;28;24444;-75
2022/06/28 02:53:53;;;;;;;1.85;0.70;;;;;;;14.19;100.00;96388.78;5008396;28;24467;-74
2022/06/28 02:56:20;;;;;;;3.15;0.70;;;;;;;14.18;100.00;96387.13;5006152;28;24460;-74
2022/06/28 02:58:46;;;;;;;6.13;0.98;;;;;;;14.05;100.00;96386.25;5000663;28;24436;-74
2022/06/28 03:01:13;;;;;;;2.57;1.07;;;;;;;13.77;100.00;96382.06;5010318;28;24796;-75
2022/06/28 03:03:40;;;;;;;2.03;1.13;;;;;;;13.63;100.00;96382.97;5007003;28;25033;-74
2022/06/28 03:06:07;;;;;;;0.95;0.50;;;;;;;13.99;100.00;96397.09;5010590;28;24464;-74
2022/06/28 03:08:34;;;;;;;0.95;0.70;;;;;;;14.12;100.00;96407.53;5008297;28;24823;-74
2022/06/28 03:11:01;;;;;;;2.63;0.80;;;;;;;14.29;100.00;96415.88;5010593;28;24444;-73
2022/06/28 03:13:27;;;;;;;1.98;0.60;;;;;;;14.15;100.00;96417.75;5005566;28;24429;-73
2022/06/28 03:15:53;;;;;;;3.55;0.90;;;;;;;13.86;100.00;96419.66;5010773;28;24452;-72
2022/06/28 03:18:20;;;;;;;1.83;0.70;;;;;;;13.76;100.00;96422.06;5001995;28;24432;-72
2022/06/28 03:20:46;;;;;;;1.92;0.70;;;;;;;13.82;100.00;96419.03;5010339;28;24842;-73
2022/06/28 03:23:14;;;;;;;1.45;1.10;;;;;;;13.79;100.00;96417.50;5007058;28;24988;-72
2022/06/28 03:25:41;;;;;;;2.03;1.25;;;;;;;13.78;100.00;96414.97;5004381;28;24447;-73
2022/06/28 03:28:07;;;;;;;4.73;1.40;;;;;;;13.87;100.00;96409.19;5003729;28;24635;-73
2022/06/28 03:30:34;;;;;;;2.03;1.02;;;;;;;13.76;100.00;96417.69;5010712;28;24433;-73
2022/06/28 03:33:01;;;;;;;3.85;1.10;;;;;;;13.70;100.00;96410.25;5011243;28;24486;-72
2022/06/28 03:35:27;;;;;;;2.60;1.10;;;;;;;13.77;100.00;96416.75;5009693;28;24818;-73
2022/06/28 03:37:53;;;;;;;1.88;1.15;;;;;;;13.90;100.00;96421.13;5011652;28;24436;-73
2022/06/28 03:40:21;;;;;;;3.85;1.50;;;;;;;13.78;100.00;96425.38;5008903;28;24992;-73
2022/06/28 03:42:48;;;;;;;4.45;1.50;;;;;;;13.64;100.00;96428.88;5001945;28;24463;-73
2022/06/28 03:45:14;;;;;;;1.52;1.38;;;;;;;13.58;100.00;96431.88;5008966;28;24487;-73
2022/06/28 03:47:41;;;;;;;2.35;1.40;;;;;;;13.72;100.00;96431.84;5001456;28;24440;-72
2022/06/28 03:50:08;;;;;;;1.93;1.30;;;;;;;13.84;100.00;96437.19;4999026;28;24436;-73
2022/06/28 03:52:34;;;;;;;1.60;1.10;;;;;;;13.96;100.00;96431.16;5011670;28;24443;-73
2022/06/28 03:55:01;;;;;;;2.83;1.40;;;;;;;14.06;100.00;96445.25;5008836;28;25092;-73
2022/06/28 03:57:29;;;;;;;2.58;1.13;;;;;;;14.08;100.00;96440.75;5011064;28;24452;-73
2022/06/28 03:59:56;;;;;;;4.72;1.67;;;;;;;14.12;100.00;96439.63;5011451;28;24436;-72
2022/06/28 04:02:23;;;;;;;23.65;2.53;;;;;;;13.94;100.00;96440.81;5006175;28;25004;-72
2022/06/28 04:04:49;;;;;;;21.20;2.42;;;;;;;13.76;100.00;96438.50;5008465;28;25052;-72
2022/06/28 04:07:16;;;;;;;25.52;1.90;;;;;;;13.73;100.00;96433.50;5005750;28;24425;-72
2022/06/28 04:09:42;;;;;;;10.32;1.60;;;;;;;13.66;100.00;96432.22;5008700;28;24491;-73
2022/06/28 04:12:09;;;;;;;28.98;1.80;;;;;;;13.46;100.00;96435.25;5003207;28;24437;-73
2022/06/28 04:14:36;;;;;;;16.60;1.50;;;;;;;13.35;100.00;96433.34;5010023;28;25032;-73
2022/06/28 04:17:03;;;;;;;13.85;1.50;;;;;;;13.41;100.00;96421.72;5006202;28;24818;-73
2022/06/28 04:19:30;;;;;;;1.83;1.40;;;;;;;13.58;100.00;96434.50;5009130;28;24503;-73
2022/06/28 04:21:56;;;;;;;4.77;1.57;;;;;;;13.54;100.00;96433.84;5006269;28;24439;-73
2022/06/28 04:24:23;;;;;;;5.60;1.48;;;;;;;13.53;100.00;96428.72;5009081;28;24524;-73
2022/06/28 04:26:49;;;;;;;3.60;1.52;;;;;;;13.76;100.00;96438.50;5006575;28;24433;-73
2022/06/28 04:29:16;;;;;;;2.40;1.25;;;;;;;13.97;100.00;96443.25;5009460;28;24436;-72
2022/06/28 04:31:44;;;;;;;7.05;1.50;;;;;;;13.96;100.00;96445.00;5006696;28;24492;-72
2022/06/28 04:34:10;;;;;;;4.18;1.40;;;;;;;14.00;100.00;96435.22;5009475;28;24444;-73
2022/06/28 04:36:36;;;;;;;2.42;1.25;;;;;;;13.99;100.00;96429.19;5006284;28;24461;-73
2022/06/28 04:39:03;;;;;;;6.97;1.70;;;;;;;13.91;100.00;96433.25;5002475;28;24790;-73
2022/06/28 04:41:30;;;;;;;2.20;1.42;;;;;;;14.10;100.00;96427.66;5007124;28;24444;-73
2022/06/28 04:43:56;;;;;;;2.23;1.53;;;;;;;14.25;100.00;96434.44;5009287;28;25122;-73
2022/06/28 04:46:23;;;;;;;2.53;1.45;;;;;;;14.30;100.00;96434.97;5010001;28;24478;-73
2022/06/28 04:48:51;;;;;;;1.95;1.50;;;;;;;14.42;100.00;96435.91;5010369;28;24487;-73
2022/06/28 04:51:17;;;;;;;2.20;1.70;;;;;;;14.45;100.00;96435.69;5007212;28;24439;-73
2022/06/28 04:53:47;;;;;;;6.40;2.00;;;;;;;14.29;100.00;96435.91;5010274;28;24476;-74
2022/06/28 04:56:14;;;;;;;1.60;1.13;;;;;;;14.27;100.00;96443.81;5001035;28;24503;-74
2022/06/28 04:58:41;;;;;;;1.30;1.10;;;;;;;14.34;100.00;96443.41;5002348;28;24432;-75
2022/06/28 05:01:07;;;;;;;1.50;1.10;;;;;;;14.51;100.00;96441.38;5006572;28;24443;-72
2022/06/28 05:03:34;;;;;;;1.77;1.30;;;;;;;14.43;100.00;96432.38;5005688;28;24439;-72
2022/06/28 05:06:02;;;;;;;2.10;1.20;;;;;;;14.43;100.00;96432.38;5009020;28;24433;-75
2022/06/28 05:08:28;;;;;;;2.80;1.77;;;;;;;14.45;100.00;96426.09;5005162;28;24436;-75
2022/06/28 05:10:54;;;;;;;1.77;1.20;;;;;;;14.23;100.00;96418.91;5010003;28;24439;-74
2022/06/28 05:13:21;;;;;;;2.15;1.00;;;;;;;14.29;100.00;96423.72;5001055;28;24507;-75
2022/06/28 05:15:47;;;;;;;2.70;1.08;;;;;;;14.55;100.00;96420.31;5009382;28;24981;-74
2022/06/28 05:18:14;;;;;;;1.33;1.10;;;;;;;14.84;100.00;96426.13;5006992;28;24435;-75
2022/06/28 05:20:40;;;;;;;1.23;1.10;;;;;;;15.07;100.00;96417.53;5009962;28;24437;-74
2022/06/28 05:23:08;;;;;;;1.30;0.95;;;;;;;15.15;100.00;96420.44;5004658;28;24432;-75
2022/06/28 05:25:35;;;;;;;2.40;1.20;;;;;;;15.14;100.00;96425.75;5009612;28;25064;-74
2022/06/28 05:28:01;;;;;;;2.30;1.42;;;;;;;15.13;100.00;96429.28;5005182;28;24428;-73
2022/06/28 05:30:28;;;;;;;3.30;1.25;;;;;;;15.23;100.00;96428.53;5010006;28;24447;-73
2022/06/28 05:32:54;;;;;;;2.60;1.50;;;;;;;15.24;100.00;96426.78;5006511;28;25031;-75
2022/06/28 05:35:21;;;;;;;2.10;1.67;;;;;;;15.11;100.00;96434.63;5008868;28;24790;-75
2022/06/28 05:37:47;;;;;;;2.83;1.60;;;;;;;15.04;100.00;96433.41;5006055;28;24479;-75
2022/06/28 05:40:15;;;;;;;3.28;1.52;;;;;;;15.13;100.00;96422.31;5008011;28;24443;-74
2022/06/28 05:42:41;;;;;;;1.90;1.30;;;;;;;15.33;100.00;96423.50;5007146;28;24447;-75
2022/06/28 05:45:08;;;;;;;2.47;1.42;;;;;;;15.54;100.00;96421.16;5009165;28;24444;-75
2022/06/28 05:47:35;;;;;;;3.08;1.80;;;;;;;15.36;100.00;96406.81;5006527;28;24435;-74
2022/06/28 05:50:01;;;;;;;3.05;2.38;;;;;;;15.33;100.00;96402.63;5006233;28;24499;-74
2022/06/28 05:52:28;;;;;;;6.18;2.10;;;;;;;15.39;100.00;96404.81;5009221;28;24440;-73
2022/06/28 05:54:54;;;;;;;3.43;2.10;;;;;;;15.45;100.00;96414.78;5006405;28;24571;-74
2022/06/28 05:57:22;;;;;;;3.63;1.75;;;;;;;15.91;100.00;96414.09;5001478;28;24456;-74
2022/06/28 05:59:48;;;;;;;3.55;1.80;;;;;;;16.18;100.00;96426.06;5006324;28;25198;-75
2022/06/28 06:02:15;;;;;;;2.55;1.80;;;;;;;16.14;100.00;96417.63;5009070;28;24444;-69
2022/06/28 06:04:41;;;;;;;1.50;1.40;;;;;;;16.47;100.00;96415.19;5009473;28;24444;-76
2022/06/28 06:07:08;;;;;;;3.37;1.87;;;;;;;16.84;100.00;96397.53;5002178;28;24472;-78
2022/06/28 06:09:36;;;;;;;2.43;1.73;;;;;;;16.86;100.00;96399.06;5008126;28;24432;-76
2022/06/28 06:12:03;;;;;;;2.40;2.20;;;;;;;17.45;100.00;96397.06;5005849;28;24434;-76
2022/06/28 06:14:31;;;;;;;4.57;2.50;;;;;;;17.05;100.00;96385.38;4999708;28;24439;-77
2022/06/28 06:16:57;;;;;;;2.67;1.80;;;;;;;17.23;100.00;96367.38;5008369;28;24498;-75
2022/06/28 06:19:24;;;;;;;2.25;1.67;;;;;;;17.34;100.00;96377.81;4999654;28;24436;-76
2022/06/28 06:21:50;;;;;;;2.80;1.80;;;;;;;17.42;100.00;96380.66;5004921;28;24502;-73
2022/06/28 06:24:17;;;;;;;2.80;1.67;;;;;;;17.95;100.00;96379.91;5006987;28;24459;-73
2022/06/28 06:26:44;;;;;;;1.90;1.50;;;;;;;18.05;100.00;96385.19;5004861;28;24431;-73
2022/06/28 06:29:11;;;;;;;3.63;2.20;;;;;;;18.03;100.00;96382.72;5010374;28;24502;-73
2022/06/28 06:31:39;;;;;;;3.55;2.20;;;;;;;18.17;100.00;96378.09;5007857;28;24535;-73
2022/06/28 06:34:06;;;;;;;8.48;2.20;;;;;;;17.90;100.00;96374.19;5010082;28;24495;-73
2022/06/28 06:36:33;;;;;;;4.95;2.95;;;;;;;17.84;100.00;96369.47;5002838;28;24453;-72
2022/06/28 06:38:59;;;;;;;3.90;2.80;;;;;;;17.58;100.00;96369.78;5003925;28;24961;-73
2022/06/28 06:41:26;;;;;;;4.07;2.67;;;;;;;17.21;100.00;96360.63;5008699;28;24490;-74
2022/06/28 06:43:53;;;;;;;3.08;2.72;;;;;;;17.17;100.00;96360.03;5011156;28;24479;-73
2022/06/28 06:46:20;;;;;;;2.75;2.33;;;;;;;17.05;100.00;96360.97;5000279;28;24830;-74
2022/06/28 06:48:48;;;;;;;3.65;2.80;;;;;;;16.72;100.00;96357.41;5011044;28;24490;-73
2022/06/28 06:51:14;;;;;;;3.92;2.70;;;;;;;16.68;100.00;96350.75;5008116;28;24441;-74
2022/06/28 06:53:41;;;;;;;4.40;2.65;;;;;;;16.52;100.00;96332.81;5005350;28;24440;-75
2022/06/28 06:56:07;;;;;;;4.40;2.63;;;;;;;16.24;100.00;96328.03;5009240;28;24447;-73
2022/06/28 06:58:34;;;;;;;3.10;2.67;;;;;;;16.20;100.00;96340.53;5011745;28;24525;-73
2022/06/28 07:01:00;;;;;;;5.10;3.67;;;;;;;16.21;100.00;96345.66;5009452;28;24432;-74
2022/06/28 07:03:27;;;;;;;4.40;3.45;;;;;;;16.54;100.00;96345.75;5008733;28;24437;-73
2022/06/28 07:05:55;;;;;;;5.85;3.70;;;;;;;16.53;100.00;96352.78;5009345;28;24428;-74
2022/06/28 07:08:21;;;;;;;4.90;3.30;;;;;;;16.38;100.00;96359.19;5012979;28;24432;-74
2022/06/28 07:10:48;;;;;;;4.05;3.20;;;;;;;16.50;100.00;96354.81;5009815;28;25009;-74
2022/06/28 07:13:15;;;;;;;4.78;3.42;;;;;;;16.75;100.00;96351.16;5010023;28;24448;-74
2022/06/28 07:15:41;;;;;;;3.65;3.17;;;;;;;16.64;100.00;96349.34;5007679;28;24507;-73
2022/06/28 07:18:08;;;;;;;4.57;4.03;;;;;;;16.68;100.00;96356.81;5010583;28;24459;-74
2022/06/28 07:20:34;;;;;;;4.03;3.50;;;;;;;16.57;100.00;96364.66;5007293;28;24432;-74
2022/06/28 07:23:02;;;;;;;5.97;3.30;;;;;;;16.57;100.00;96366.44;5011826;28;24436;-76
2022/06/28 07:25:29;;;;;;;3.80;3.20;;;;;;;16.64;100.00;96376.31;5006633;28;24437;-75
2022/06/28 07:27:55;;;;;;;5.95;3.30;;;;;;;16.35;100.00;96390.78;5012597;28;24455;-74
2022/06/28 07:30:22;;;;;;;5.10;3.13;;;;;;;16.53;100.00;96378.09;5005774;28;24834;-75
2022/06/28 07:32:48;;;;;;;3.92;3.10;;;;;;;16.76;100.00;96386.81;5012058;28;24435;-74
2022/06/28 07:35:15;;;;;;;4.82;3.30;;;;;;;16.72;100.00;96377.50;5004557;28;24492;-75
2022/06/28 07:37:41;;;;;;;4.45;3.65;;;;;;;16.85;100.00;96381.72;5011348;28;24452;-75
2022/06/28 07:40:10;;;;;;;17.30;4.15;;;;;;;17.06;100.00;96371.34;5003772;28;24436;-75
2022/06/28 07:42:36;;;;;;;5.80;4.20;;;;;;;17.05;100.00;96374.91;5005657;28;24539;-75
2022/06/28 07:45:04;;;;;;;9.05;4.20;;;;;;;17.01;100.00;96380.50;5010410;28;24436;-75
2022/06/28 07:47:30;;;;;;;6.67;4.43;;;;;;;17.12;100.00;96383.09;5009855;28;24557;-74
2022/06/28 07:52:40;;;;;;;7.83;3.70;;;;;;;17.02;100.00;96387.38;4998146;28;24424;-74
2022/06/28 07:55:11;;;;;;;4.40;3.72;;;;;;;17.03;100.00;96404.78;5004968;28;24802;-74
2022/06/28 07:57:38;;;;;;;7.22;3.88;;;;;;;17.31;100.00;96396.38;5005473;28;24453;-74
2022/06/28 08:00:06;;;;;;;7.13;3.83;;;;;;;17.53;100.00;96398.13;4998786;28;24492;-73
2022/06/28 08:02:33;;;;;;;4.53;3.55;;;;;;;17.79;100.00;96382.09;5011782;28;24435;-74
2022/06/28 08:04:59;;;;;;;4.82;2.95;;;;;;;18.04;100.00;96384.38;5006408;28;24486;-74
2022/06/28 08:07:26;;;;;;;4.38;3.33;;;;;;;17.91;100.00;96388.97;5010225;28;24440;-75
2022/06/28 08:09:53;;;;;;;5.03;3.40;;;;;;;18.07;100.00;96381.50;5010893;28;25202;-73
2022/06/28 08:12:20;;;;;;;4.40;3.40;;;;;;;18.23;100.00;96372.34;5002702;28;24433;-72
2022/06/28 08:14:47;;;;;;;6.17;3.30;;;;;;;18.25;100.00;96366.03;4999229;28;24997;-73
2022/06/28 08:17:13;;;;;;;4.85;2.75;;;;;;;18.20;100.00;96362.13;5006351;28;24498;-72
2022/06/28 08:19:40;;;;;;;6.68;3.20;;;;;;;18.27;100.00;96358.03;5001196;28;24437;-74
2022/06/28 08:22:06;;;;;;;5.50;3.50;;;;;;;18.47;100.00;96357.19;5009572;28;24451;-73
2022/06/28 08:24:33;;;;;;;5.45;3.53;;;;;;;18.36;100.00;96352.84;5006685;28;24436;-73
2022/06/28 08:26:59;;;;;;;5.75;3.58;;;;;;;18.59;100.00;96345.63;5008789;28;24482;-73
2022/06/28 08:29:29;;;;;;;4.43;3.03;;;;;;;18.66;100.00;96358.22;5011032;28;25012;-74
2022/06/28 08:31:56;;;;;;;10.43;3.22;;;;;;;18.95;100.00;96348.69;5011080;28;25008;-73
2022/06/28 08:34:22;;;;;;;5.13;3.22;;;;;;;19.15;100.00;96343.50;5008491;28;25004;-73
2022/06/28 08:36:49;;;;;;;3.83;3.15;;;;;;;18.98;100.00;96343.16;5010780;28;24974;-73
2022/06/28 08:39:15;;;;;;;5.63;2.92;;;;;;;18.81;100.00;96356.94;5007843;28;24448;-75
2022/06/28 08:41:44;;;;;;;3.33;3.00;;;;;;;18.75;100.00;96349.59;5010514;28;24491;-75
2022/06/28 08:44:11;;;;;;;5.03;3.00;;;;;;;18.66;100.00;96345.09;5005737;28;24970;-74
2022/06/28 08:46:39;;;;;;;4.53;2.70;;;;;;;18.56;100.00;96351.13;5002699;28;24529;-74
2022/06/28 08:49:13;;;;;;;5.43;3.25;;;;;;;18.51;100.00;96350.72;5005186;28;24795;-75
2022/06/28 08:51:41;;;;;;;9.52;3.22;;;;;;;18.72;100.00;96344.59;5009056;28;24532;-74
2022/06/28 08:54:08;;;;;;;3.80;2.60;;;;;;;18.83;100.00;96340.06;5006142;28;24436;-75
2022/06/28 08:56:38;;;;;;;3.00;2.20;;;;;;;19.06;100.00;96329.38;5008484;28;24436;-75
2022/06/28 08:59:06;;;;;;;3.90;2.60;;;;;;;19.22;100.00;96323.59;5006370;28;24453;-75
2022/06/28 09:01:32;;;;;;;7.28;2.53;;;;;;;19.11;100.00;96327.16;5008943;28;24432;-74
2022/06/28 09:04:01;;;;;;;3.00;2.70;;;;;;;19.14;100.00;96331.34;5005883;28;24494;-72
2022/06/28 09:06:27;;;;;;;5.65;2.70;;;;;;;18.89;100.00;96312.47;5002986;28;24451;-73
2022/06/28 09:08:54;;;;;;;4.38;2.95;;;;;;;19.15;100.00;96306.72;5006250;28;24443;-74
2022/06/28 09:11:20;;;;;;;7.65;3.40;;;;;;;19.18;100.00;96316.97;4997578;28;24437;-75
2022/06/28 09:13:47;;;;;;;6.27;2.63;;;;;;;19.31;100.00;96320.97;4998882;28;24516;-75
2022/06/28 09:16:13;;;;;;;3.20;2.10;;;;;;;19.33;100.00;96334.81;5008767;28;24455;-75
2022/06/28 09:18:45;;;;;;;4.35;2.10;;;;;;;19.30;100.00;96329.00;5006323;28;24449;-72
2022/06/28 09:21:15;;;;;;;2.60;1.95;;;;;;;19.53;100.00;96327.75;5001817;28;24443;-74
2022/06/28 09:23:44;;;;;;;5.45;2.25;;;;;;;20.05;100.00;96322.22;5006194;28;25004;-75
2022/06/28 09:26:12;;;;;;;3.20;2.28;;;;;;;19.89;99.96;96325.44;5001409;28;25019;-75
2022/06/28 09:28:41;;;;;;;5.25;1.92;;;;;;;20.11;100.00;96323.47;5006643;28;24467;-75
2022/06/28 09:31:16;;;;;;;3.78;2.10;;;;;;;20.07;99.38;96322.94;5009104;28;24842;-75
2022/06/28 09:33:43;;;;;;;4.25;2.08;;;;;;;20.24;100.00;96314.28;5006224;28;24445;-76
2022/06/28 09:36:16;;;;;;;1.95;1.70;;;;;;;20.18;99.01;96316.69;5009228;28;24434;-75
2022/06/28 09:38:43;;;;;;;3.50;2.50;;;;;;;20.21;98.00;96321.63;4999396;28;24811;-75
2022/06/28 09:41:24;;;;;;;2.45;2.03;;;;;;;20.62;100.00;96322.25;5008326;28;24471;-76
2022/06/28 09:43:58;;;;;;;16.70;2.40;;;;;;;20.75;96.35;96328.00;4998754;28;24549;-75
2022/06/28 09:46:27;;;;;;;5.72;2.58;;;;;;;20.71;92.54;96335.34;5007273;28;25004;-76
2022/06/28 09:48:58;;;;;;;5.07;2.55;;;;;;;20.71;95.17;96332.72;5005671;28;24436;-75
2022/06/28 09:51:27;;;;;;;3.65;2.35;;;;;;;20.60;93.39;96332.06;5007164;28;24989;-75
2022/06/28 09:53:56;;;;;;;5.75;2.40;;;;;;;20.49;94.99;96323.38;4998063;28;24978;-76
2022/06/28 09:56:23;;;;;;;5.20;2.22;;;;;;;20.43;95.83;96318.69;5009201;28;24467;-76
2022/06/28 09:58:51;;;;;;;5.30;1.93;;;;;;;20.52;94.72;96325.72;5006302;28;24499;-75
2022/06/28 10:01:18;;;;;;;1.80;1.50;;;;;;;20.41;94.01;96322.41;5008880;28;24441;-75
2022/06/28 10:03:44;;;;;;;13.90;2.20;;;;;;;20.62;97.17;96309.09;5009460;28;24433;-74
2022/06/28 10:06:12;;;;;;;4.32;2.10;;;;;;;21.04;99.19;96306.78;5010868;28;24824;-75
2022/06/28 10:08:41;;;;;;;2.83;1.63;;;;;;;21.10;89.01;96307.97;5005008;28;24424;-76
2022/06/28 10:11:09;;;;;;;3.85;1.90;;;;;;;20.97;90.64;96292.53;5009946;28;24837;-76
2022/06/28 10:16:36;;;;;;;2.70;1.80;;;;;;;20.86;89.47;96279.59;5008434;28;24491;-76
2022/06/28 10:19:04;;;;;;;2.28;1.65;;;;;;;21.07;90.02;96272.25;5012311;28;24452;-76
2022/06/28 10:21:44;;;;;;;1.95;1.48;;;;;;;21.13;87.48;96273.44;5002065;28;24459;-75
2022/06/28 10:24:13;;;;;;;2.42;1.60;;;;;;;21.29;90.08;96272.81;5011201;28;24439;-76
2022/06/28 10:26:43;;;;;;;2.33;1.67;;;;;;;21.33;82.25;96267.09;5009146;28;24479;-76
2022/06/28 10:29:10;;;;;;;3.95;1.90;;;;;;;21.93;85.13;96266.44;5011076;28;24432;-76
2022/06/28 10:31:41;;;;;;;2.58;2.08;;;;;;;22.04;85.31;96270.63;5009518;28;24447;-76
2022/06/28 10:34:10;;;;;;;3.75;1.75;;;;;;;22.14;87.08;96272.22;5011398;28;24527;-76
2022/06/28 10:36:51;;;;;;;2.28;1.60;;;;;;;21.82;87.08;96282.50;5009092;28;24436;-76
2022/06/28 10:39:24;;;;;;;2.30;1.40;;;;;;;21.52;83.00;96271.38;5008574;28;24533;-76
2022/06/28 10:41:52;;;;;;;2.27;2.00;;;;;;;21.48;82.34;96270.88;5004776;28;24436;-76
2022/06/28 10:44:21;;;;;;;4.07;1.50;;;;;;;21.54;84.78;96263.31;5009832;28;24428;-74
2022/06/28 10:46:57;;;;;;;1.70;1.40;;;;;;;21.19;81.21;96257.88;5009936;28;24432;-76
2022/06/28 10:49:23;;;;;;;2.15;1.38;;;;;;;21.33;89.27;96246.03;5002232;28;24432;-72
2022/06/28 10:52:13;;;;;;;2.00;1.20;;;;;;;21.31;80.57;96247.13;5011156;28;24437;-76
2022/06/28 10:55:04;;;;;;;3.75;1.10;;;;;;;21.17;83.08;96241.41;5004660;28;24986;-76
2022/06/28 10:57:36;;;;;;;2.13;1.50;;;;;;;21.58;83.56;96225.13;5005322;28;24631;-76
2022/06/28 11:00:06;;;;;;;2.45;1.83;;;;;;;21.92;88.68;96215.50;5008065;28;24850;-76
2022/06/28 11:02:46;;;;;;;1.70;1.60;;;;;;;22.15;81.29;96221.09;5006316;28;24440;-76
2022/06/28 11:05:12;;;;;;;4.65;1.80;;;;;;;22.13;83.07;96215.09;5008285;28;24996;-76
2022/06/28 11:07:41;;;;;;;2.22;1.52;;;;;;;22.02;81.65;96211.91;5009030;28;24483;-76
2022/06/28 11:10:13;;;;;;;3.60;1.80;;;;;;;21.97;84.03;96207.94;5010620;28;24671;-76
2022/06/28 11:12:41;;;;;;;3.13;1.77;;;;;;;21.91;80.56;96208.56;5007938;28;24440;-76
2022/06/28 11:15:10;;;;;;;2.70;1.40;;;;;;;21.78;86.55;96197.59;5009838;28;24440;-77
2022/06/28 11:17:40;;;;;;;3.00;1.70;;;;;;;21.91;81.74;96195.38;5007022;28;24433;-77
2022/06/28 11:20:10;;;;;;;3.03;1.35;;;;;;;21.87;85.67;96194.03;5004061;28;24978;-76
2022/06/28 11:22:41;;;;;;;5.43;1.40;;;;;;;21.86;79.21;96187.09;5007512;28;24460;-77
2022/06/28 11:25:09;;;;;;;2.50;1.40;;;;;;;22.08;82.68;96177.81;5004047;28;24977;-75
2022/06/28 11:27:43;;;;;;;1.52;1.10;;;;;;;21.89;78.64;96188.63;5015187;28;24463;-76
2022/06/28 11:30:10;;;;;;;1.65;1.20;;;;;;;22.04;82.50;96179.13;5009494;28;24432;-76
2022/06/28 11:32:38;;;;;;;3.40;1.15;;;;;;;22.34;81.82;96179.63;5009445;28;24487;-76
2022/06/28 11:35:08;;;;;;;2.45;1.30;;;;;;;22.34;84.53;96176.97;5011709;28;25092;-76
2022/06/28 11:37:47;;;;;;;1.80;1.10;;;;;;;22.14;82.23;96174.59;5018963;28;24420;-76
2022/06/28 11:40:15;;;;;;;4.07;1.40;;;;;;;22.50;84.72;96174.38;5009626;28;24846;-76